sensor_id;sensor_type;location;lat;lon;timestamp;temperature;humidity
30174;DHT22;16985;50.814;8.530;2023-06-14T00:01:14;16.50;69.30
30174;DHT22;16985;50.814;8.530;2023-06-14T00:03:39;16.50;69.50
30174;DHT22;16985;50.814;8.530;2023-06-14T00:06:05;16.50;69.70
30174;DHT22;16985;50.814;8.530;2023-06-14T00:08:31;16.40;69.70
30174;DHT22;16985;50.814;8.530;2023-06-14T00:10:57;16.40;69.70
30174;DHT22;16985;50.814;8.530;2023-06-14T00:13:23;16.40;70.10
30174;DHT22;16985;50.814;8.530;2023-06-14T00:15:49;16.30;70.10
30174;DHT22;16985;50.814;8.530;2023-06-14T00:18:15;16.30;70.30
30174;DHT22;16985;50.814;8.530;2023-06-14T00:20:42;16.20;70.40
30174;DHT22;16985;50.814;8.530;2023-06-14T00:23:24;16.20;70.60
30174;DHT22;16985;50.814;8.530;2023-06-14T00:25:50;16.10;70.60
30174;DHT22;16985;50.814;8.530;2023-06-14T00:28:16;16.10;70.70
30174;DHT22;16985;50.814;8.530;2023-06-14T00:30:43;16.10;70.70
30174;DHT22;16985;50.814;8.530;2023-06-14T00:33:12;16.00;70.60
30174;DHT22;16985;50.814;8.530;2023-06-14T00:35:37;16.00;70.60
30174;DHT22;16985;50.814;8.530;2023-06-14T00:38:04;16.00;70.60
30174;DHT22;16985;50.814;8.530;2023-06-14T00:40:29;15.90;70.50
30174;DHT22;16985;50.814;8.530;2023-06-14T00:42:55;15.90;70.50
30174;DHT22;16985;50.814;8.530;2023-06-14T00:45:21;15.90;70.50
30174;DHT22;16985;50.814;8.530;2023-06-14T00:47:47;15.90;70.50
30174;DHT22;16985;50.814;8.530;2023-06-14T00:50:31;15.80;70.70
30174;DHT22;16985;50.814;8.530;2023-06-14T00:53:01;15.70;70.70
30174;DHT22;16985;50.814;8.530;2023-06-14T00:55:28;15.80;70.90
30174;DHT22;16985;50.814;8.530;2023-06-14T00:57:55;15.70;70.80
30174;DHT22;16985;50.814;8.530;2023-06-14T01:00:36;15.70;70.70
30174;DHT22;16985;50.814;8.530;2023-06-14T01:03:02;15.60;70.70
30174;DHT22;16985;50.814;8.530;2023-06-14T01:05:29;15.60;70.80
30174;DHT22;16985;50.814;8.530;2023-06-14T01:08:19;15.60;70.80
30174;DHT22;16985;50.814;8.530;2023-06-14T01:11:10;15.60;70.90
30174;DHT22;16985;50.814;8.530;2023-06-14T01:13:39;15.60;71.00
30174;DHT22;16985;50.814;8.530;2023-06-14T01:16:10;15.50;71.00
30174;DHT22;16985;50.814;8.530;2023-06-14T01:18:36;15.40;71.20
30174;DHT22;16985;50.814;8.530;2023-06-14T01:21:02;15.50;71.40
30174;DHT22;16985;50.814;8.530;2023-06-14T01:23:31;15.40;71.40
30174;DHT22;16985;50.814;8.530;2023-06-14T01:25:59;15.40;71.40
30174;DHT22;16985;50.814;8.530;2023-06-14T01:28:31;15.40;71.40
30174;DHT22;16985;50.814;8.530;2023-06-14T01:31:01;15.40;71.60
30174;DHT22;16985;50.814;8.530;2023-06-14T01:33:32;15.30;71.70
30174;DHT22;16985;50.814;8.530;2023-06-14T01:35:59;15.20;71.80
30174;DHT22;16985;50.814;8.530;2023-06-14T01:38:30;15.20;72.00
30174;DHT22;16985;50.814;8.530;2023-06-14T01:40:57;15.20;72.10
30174;DHT22;16985;50.814;8.530;2023-06-14T01:43:25;15.10;72.30
30174;DHT22;16985;50.814;8.530;2023-06-14T01:45:53;15.10;72.30
30174;DHT22;16985;50.814;8.530;2023-06-14T01:48:20;15.10;72.40
30174;DHT22;16985;50.814;8.530;2023-06-14T01:50:51;15.00;72.50
30174;DHT22;16985;50.814;8.530;2023-06-14T01:53:19;15.00;72.40
30174;DHT22;16985;50.814;8.530;2023-06-14T01:55:46;14.90;72.50
30174;DHT22;16985;50.814;8.530;2023-06-14T01:58:14;15.00;72.60
30174;DHT22;16985;50.814;8.530;2023-06-14T02:00:50;14.90;72.70
30174;DHT22;16985;50.814;8.530;2023-06-14T02:03:18;14.90;72.70
30174;DHT22;16985;50.814;8.530;2023-06-14T02:05:45;14.90;72.90
30174;DHT22;16985;50.814;8.530;2023-06-14T02:08:10;14.80;72.80
30174;DHT22;16985;50.814;8.530;2023-06-14T02:10:37;14.80;72.90
30174;DHT22;16985;50.814;8.530;2023-06-14T02:13:03;14.80;72.90
30174;DHT22;16985;50.814;8.530;2023-06-14T02:15:29;14.80;73.10
30174;DHT22;16985;50.814;8.530;2023-06-14T02:18:03;14.70;73.10
30174;DHT22;16985;50.814;8.530;2023-06-14T02:20:32;14.70;73.40
30174;DHT22;16985;50.814;8.530;2023-06-14T02:22:58;14.70;73.40
30174;DHT22;16985;50.814;8.530;2023-06-14T02:25:38;14.70;73.70
30174;DHT22;16985;50.814;8.530;2023-06-14T02:28:07;14.70;73.50
30174;DHT22;16985;50.814;8.530;2023-06-14T02:30:32;14.60;73.50
30174;DHT22;16985;50.814;8.530;2023-06-14T02:32:58;14.70;73.40
30174;DHT22;16985;50.814;8.530;2023-06-14T02:35:24;14.70;74.30
30174;DHT22;16985;50.814;8.530;2023-06-14T02:37:52;14.60;73.80
30174;DHT22;16985;50.814;8.530;2023-06-14T02:40:33;14.60;74.00
30174;DHT22;16985;50.814;8.530;2023-06-14T02:42:59;14.60;74.00
30174;DHT22;16985;50.814;8.530;2023-06-14T02:45:32;14.50;74.30
30174;DHT22;16985;50.814;8.530;2023-06-14T02:47:58;14.50;74.30
30174;DHT22;16985;50.814;8.530;2023-06-14T02:50:24;14.40;74.50
30174;DHT22;16985;50.814;8.530;2023-06-14T02:52:50;14.40;74.60
30174;DHT22;16985;50.814;8.530;2023-06-14T02:55:16;14.30;74.50
30174;DHT22;16985;50.814;8.530;2023-06-14T02:57:57;14.40;74.80
30174;DHT22;16985;50.814;8.530;2023-06-14T03:00:25;14.30;74.80
30174;DHT22;16985;50.814;8.530;2023-06-14T03:02:51;14.20;74.90
30174;DHT22;16985;50.814;8.530;2023-06-14T03:05:18;14.20;75.00
30174;DHT22;16985;50.814;8.530;2023-06-14T03:07:47;14.20;75.30
30174;DHT22;16985;50.814;8.530;2023-06-14T03:10:13;14.10;75.20
30174;DHT22;16985;50.814;8.530;2023-06-14T03:12:41;14.10;75.40
30174;DHT22;16985;50.814;8.530;2023-06-14T03:15:09;14.10;75.60
30174;DHT22;16985;50.814;8.530;2023-06-14T03:17:39;14.00;75.70
30174;DHT22;16985;50.814;8.530;2023-06-14T03:20:06;14.00;76.00
30174;DHT22;16985;50.814;8.530;2023-06-14T03:22:33;14.00;76.20
30174;DHT22;16985;50.814;8.530;2023-06-14T03:25:00;13.90;76.10
30174;DHT22;16985;50.814;8.530;2023-06-14T03:27:29;13.90;76.20
30174;DHT22;16985;50.814;8.530;2023-06-14T03:29:55;13.90;76.30
30174;DHT22;16985;50.814;8.530;2023-06-14T03:32:21;13.80;77.10
30174;DHT22;16985;50.814;8.530;2023-06-14T03:34:47;13.80;76.60
30174;DHT22;16985;50.814;8.530;2023-06-14T03:37:17;13.80;76.50
30174;DHT22;16985;50.814;8.530;2023-06-14T03:39:44;13.90;76.70
30174;DHT22;16985;50.814;8.530;2023-06-14T03:42:15;13.90;76.80
30174;DHT22;16985;50.814;8.530;2023-06-14T03:44:42;13.80;76.70
30174;DHT22;16985;50.814;8.530;2023-06-14T03:47:08;13.80;76.90
30174;DHT22;16985;50.814;8.530;2023-06-14T03:49:34;13.80;77.10
30174;DHT22;16985;50.814;8.530;2023-06-14T03:52:00;13.80;77.30
30174;DHT22;16985;50.814;8.530;2023-06-14T03:54:27;13.70;77.10
30174;DHT22;16985;50.814;8.530;2023-06-14T03:56:54;13.70;77.30
30174;DHT22;16985;50.814;8.530;2023-06-14T03:59:22;13.80;77.50
30174;DHT22;16985;50.814;8.530;2023-06-14T04:01:48;13.80;77.50
30174;DHT22;16985;50.814;8.530;2023-06-14T04:04:15;13.80;77.50
30174;DHT22;16985;50.814;8.530;2023-06-14T04:06:44;13.80;77.20
30174;DHT22;16985;50.814;8.530;2023-06-14T04:09:13;13.80;77.40
30174;DHT22;16985;50.814;8.530;2023-06-14T04:11:40;13.80;77.50
30174;DHT22;16985;50.814;8.530;2023-06-14T04:14:06;13.80;77.40
30174;DHT22;16985;50.814;8.530;2023-06-14T04:16:32;13.80;77.50
30174;DHT22;16985;50.814;8.530;2023-06-14T04:19:00;13.80;77.60
30174;DHT22;16985;50.814;8.530;2023-06-14T04:21:26;13.90;77.90
30174;DHT22;16985;50.814;8.530;2023-06-14T04:23:54;13.80;77.80
30174;DHT22;16985;50.814;8.530;2023-06-14T04:26:23;13.90;78.00
30174;DHT22;16985;50.814;8.530;2023-06-14T04:28:56;13.90;78.10
30174;DHT22;16985;50.814;8.530;2023-06-14T04:31:29;13.90;78.00
30174;DHT22;16985;50.814;8.530;2023-06-14T04:33:56;13.90;78.30
30174;DHT22;16985;50.814;8.530;2023-06-14T04:36:22;13.90;78.60
30174;DHT22;16985;50.814;8.530;2023-06-14T04:38:49;14.00;78.90
30174;DHT22;16985;50.814;8.530;2023-06-14T04:41:31;14.00;78.60
30174;DHT22;16985;50.814;8.530;2023-06-14T04:43:58;14.00;78.40
30174;DHT22;16985;50.814;8.530;2023-06-14T04:46:43;14.10;78.40
30174;DHT22;16985;50.814;8.530;2023-06-14T04:49:16;14.10;78.40
30174;DHT22;16985;50.814;8.530;2023-06-14T04:51:44;14.10;78.20
30174;DHT22;16985;50.814;8.530;2023-06-14T04:54:11;14.10;78.00
30174;DHT22;16985;50.814;8.530;2023-06-14T04:56:41;14.10;78.00
30174;DHT22;16985;50.814;8.530;2023-06-14T04:59:23;14.10;78.00
30174;DHT22;16985;50.814;8.530;2023-06-14T05:01:51;14.20;77.90
30174;DHT22;16985;50.814;8.530;2023-06-14T05:04:18;14.20;77.90
30174;DHT22;16985;50.814;8.530;2023-06-14T05:06:45;14.20;77.80
30174;DHT22;16985;50.814;8.530;2023-06-14T05:09:14;14.20;77.80
30174;DHT22;16985;50.814;8.530;2023-06-14T05:11:55;14.20;77.60
30174;DHT22;16985;50.814;8.530;2023-06-14T05:14:22;14.20;77.70
30174;DHT22;16985;50.814;8.530;2023-06-14T05:17:04;14.30;77.70
30174;DHT22;16985;50.814;8.530;2023-06-14T05:19:31;14.30;77.90
30174;DHT22;16985;50.814;8.530;2023-06-14T05:21:57;14.40;77.60
30174;DHT22;16985;50.814;8.530;2023-06-14T05:24:23;14.40;78.20
30174;DHT22;16985;50.814;8.530;2023-06-14T05:26:48;14.40;77.80
30174;DHT22;16985;50.814;8.530;2023-06-14T05:29:14;14.50;78.30
30174;DHT22;16985;50.814;8.530;2023-06-14T05:31:40;14.50;77.80
30174;DHT22;16985;50.814;8.530;2023-06-14T05:34:06;14.60;77.90
30174;DHT22;16985;50.814;8.530;2023-06-14T05:36:32;14.60;78.30
30174;DHT22;16985;50.814;8.530;2023-06-14T05:38:57;14.60;78.00
30174;DHT22;16985;50.814;8.530;2023-06-14T05:41:28;14.60;78.20
30174;DHT22;16985;50.814;8.530;2023-06-14T05:43:55;14.70;78.10
30174;DHT22;16985;50.814;8.530;2023-06-14T05:46:22;14.70;77.70
30174;DHT22;16985;50.814;8.530;2023-06-14T05:48:54;14.70;77.90
30174;DHT22;16985;50.814;8.530;2023-06-14T05:51:24;14.70;77.80
30174;DHT22;16985;50.814;8.530;2023-06-14T05:53:52;14.80;78.10
30174;DHT22;16985;50.814;8.530;2023-06-14T05:56:18;14.90;78.20
30174;DHT22;16985;50.814;8.530;2023-06-14T05:58:45;14.90;77.90
30174;DHT22;16985;50.814;8.530;2023-06-14T06:01:12;14.90;77.90
30174;DHT22;16985;50.814;8.530;2023-06-14T06:03:39;15.00;78.10
30174;DHT22;16985;50.814;8.530;2023-06-14T06:06:04;15.00;78.70
30174;DHT22;16985;50.814;8.530;2023-06-14T06:08:30;15.00;78.20
30174;DHT22;16985;50.814;8.530;2023-06-14T06:10:57;15.10;78.20
30174;DHT22;16985;50.814;8.530;2023-06-14T06:13:23;15.10;78.20
30174;DHT22;16985;50.814;8.530;2023-06-14T06:15:48;15.10;78.00
30174;DHT22;16985;50.814;8.530;2023-06-14T06:18:14;15.20;78.00
30174;DHT22;16985;50.814;8.530;2023-06-14T06:20:41;15.30;78.30
30174;DHT22;16985;50.814;8.530;2023-06-14T06:23:06;15.30;78.60
30174;DHT22;16985;50.814;8.530;2023-06-14T06:25:33;15.30;78.40
30174;DHT22;16985;50.814;8.530;2023-06-14T06:27:59;15.40;78.80
30174;DHT22;16985;50.814;8.530;2023-06-14T06:30:25;15.40;78.40
30174;DHT22;16985;50.814;8.530;2023-06-14T06:32:51;15.50;78.50
30174;DHT22;16985;50.814;8.530;2023-06-14T06:35:18;15.50;78.60
30174;DHT22;16985;50.814;8.530;2023-06-14T06:37:44;15.60;78.30
30174;DHT22;16985;50.814;8.530;2023-06-14T06:40:10;15.60;78.70
30174;DHT22;16985;50.814;8.530;2023-06-14T06:42:36;15.70;78.70
30174;DHT22;16985;50.814;8.530;2023-06-14T06:45:04;15.70;78.80
30174;DHT22;16985;50.814;8.530;2023-06-14T06:47:40;15.80;78.40
30174;DHT22;16985;50.814;8.530;2023-06-14T06:50:06;15.90;78.40
30174;DHT22;16985;50.814;8.530;2023-06-14T06:52:33;15.90;78.40
30174;DHT22;16985;50.814;8.530;2023-06-14T06:54:59;15.90;78.80
30174;DHT22;16985;50.814;8.530;2023-06-14T06:57:24;16.00;79.00
30174;DHT22;16985;50.814;8.530;2023-06-14T06:59:51;16.00;78.30
30174;DHT22;16985;50.814;8.530;2023-06-14T07:02:17;16.10;78.10
30174;DHT22;16985;50.814;8.530;2023-06-14T07:04:43;16.10;77.70
30174;DHT22;16985;50.814;8.530;2023-06-14T07:07:09;16.20;78.20
30174;DHT22;16985;50.814;8.530;2023-06-14T07:09:35;16.20;78.00
30174;DHT22;16985;50.814;8.530;2023-06-14T07:12:01;16.30;78.10
30174;DHT22;16985;50.814;8.530;2023-06-14T07:14:27;16.30;77.90
30174;DHT22;16985;50.814;8.530;2023-06-14T07:16:54;16.40;77.70
30174;DHT22;16985;50.814;8.530;2023-06-14T07:19:20;16.40;77.30
30174;DHT22;16985;50.814;8.530;2023-06-14T07:21:46;16.50;77.10
30174;DHT22;16985;50.814;8.530;2023-06-14T07:24:12;16.60;76.90
30174;DHT22;16985;50.814;8.530;2023-06-14T07:26:37;16.70;77.00
30174;DHT22;16985;50.814;8.530;2023-06-14T07:29:03;16.80;76.60
30174;DHT22;16985;50.814;8.530;2023-06-14T07:31:29;16.80;75.90
30174;DHT22;16985;50.814;8.530;2023-06-14T07:33:55;16.90;74.80
30174;DHT22;16985;50.814;8.530;2023-06-14T07:36:22;17.00;73.30
30174;DHT22;16985;50.814;8.530;2023-06-14T07:38:48;17.10;73.30
30174;DHT22;16985;50.814;8.530;2023-06-14T07:41:21;17.10;73.30
30174;DHT22;16985;50.814;8.530;2023-06-14T07:43:47;17.20;73.10
30174;DHT22;16985;50.814;8.530;2023-06-14T07:46:27;17.40;72.70
30174;DHT22;16985;50.814;8.530;2023-06-14T07:48:53;17.30;71.90
30174;DHT22;16985;50.814;8.530;2023-06-14T07:51:19;17.50;71.70
30174;DHT22;16985;50.814;8.530;2023-06-14T07:53:45;17.50;71.60
30174;DHT22;16985;50.814;8.530;2023-06-14T07:56:11;17.70;71.50
30174;DHT22;16985;50.814;8.530;2023-06-14T07:58:37;17.80;71.10
30174;DHT22;16985;50.814;8.530;2023-06-14T08:01:03;17.90;70.90
30174;DHT22;16985;50.814;8.530;2023-06-14T08:03:31;18.00;70.50
30174;DHT22;16985;50.814;8.530;2023-06-14T08:05:57;18.10;70.00
30174;DHT22;16985;50.814;8.530;2023-06-14T08:08:23;18.20;69.60
30174;DHT22;16985;50.814;8.530;2023-06-14T08:10:49;18.30;69.40
30174;DHT22;16985;50.814;8.530;2023-06-14T08:13:15;18.40;69.00
30174;DHT22;16985;50.814;8.530;2023-06-14T08:15:41;18.50;68.50
30174;DHT22;16985;50.814;8.530;2023-06-14T08:18:07;18.50;67.90
30174;DHT22;16985;50.814;8.530;2023-06-14T08:20:32;18.60;66.80
30174;DHT22;16985;50.814;8.530;2023-06-14T08:23:03;18.60;66.60
30174;DHT22;16985;50.814;8.530;2023-06-14T08:25:30;18.60;66.70
30174;DHT22;16985;50.814;8.530;2023-06-14T08:28:10;18.60;67.10
30174;DHT22;16985;50.814;8.530;2023-06-14T08:30:36;18.60;67.00
30174;DHT22;16985;50.814;8.530;2023-06-14T08:33:02;18.70;67.20
30174;DHT22;16985;50.814;8.530;2023-06-14T08:35:28;18.70;66.90
30174;DHT22;16985;50.814;8.530;2023-06-14T08:37:54;18.90;66.90
30174;DHT22;16985;50.814;8.530;2023-06-14T08:40:23;19.00;66.90
30174;DHT22;16985;50.814;8.530;2023-06-14T08:42:53;19.10;66.70
30174;DHT22;16985;50.814;8.530;2023-06-14T08:45:20;19.20;66.50
30174;DHT22;16985;50.814;8.530;2023-06-14T08:47:48;19.10;66.90
30174;DHT22;16985;50.814;8.530;2023-06-14T08:50:21;19.40;66.30
30174;DHT22;16985;50.814;8.530;2023-06-14T08:52:56;19.50;65.60
30174;DHT22;16985;50.814;8.530;2023-06-14T08:55:27;19.60;65.50
30174;DHT22;16985;50.814;8.530;2023-06-14T08:57:57;19.60;65.20
30174;DHT22;16985;50.814;8.530;2023-06-14T09:00:25;19.70;65.10
30174;DHT22;16985;50.814;8.530;2023-06-14T09:02:52;19.80;64.80
30174;DHT22;16985;50.814;8.530;2023-06-14T09:05:27;19.80;64.50
30174;DHT22;16985;50.814;8.530;2023-06-14T09:07:53;19.90;64.40
30174;DHT22;16985;50.814;8.530;2023-06-14T09:10:27;20.00;64.60
30174;DHT22;16985;50.814;8.530;2023-06-14T09:12:53;20.10;64.40
30174;DHT22;16985;50.814;8.530;2023-06-14T09:15:19;20.20;63.60
30174;DHT22;16985;50.814;8.530;2023-06-14T09:17:45;20.30;63.30
30174;DHT22;16985;50.814;8.530;2023-06-14T09:20:11;20.30;63.10
30174;DHT22;16985;50.814;8.530;2023-06-14T09:22:43;20.30;62.70
30174;DHT22;16985;50.814;8.530;2023-06-14T09:25:24;20.20;62.40
30174;DHT22;16985;50.814;8.530;2023-06-14T09:27:51;20.10;62.50
30174;DHT22;16985;50.814;8.530;2023-06-14T09:30:28;20.00;62.80
30174;DHT22;16985;50.814;8.530;2023-06-14T09:32:54;20.00;63.40
30174;DHT22;16985;50.814;8.530;2023-06-14T09:35:20;20.00;63.80
30174;DHT22;16985;50.814;8.530;2023-06-14T09:37:47;20.00;63.90
30174;DHT22;16985;50.814;8.530;2023-06-14T09:40:13;19.80;64.20
30174;DHT22;16985;50.814;8.530;2023-06-14T09:42:39;19.80;64.40
30174;DHT22;16985;50.814;8.530;2023-06-14T09:45:06;19.80;64.40
30174;DHT22;16985;50.814;8.530;2023-06-14T09:47:33;19.90;64.40
30174;DHT22;16985;50.814;8.530;2023-06-14T09:49:59;19.90;64.10
30174;DHT22;16985;50.814;8.530;2023-06-14T09:52:27;20.10;63.90
30174;DHT22;16985;50.814;8.530;2023-06-14T09:55:02;20.30;63.70
30174;DHT22;16985;50.814;8.530;2023-06-14T09:57:41;20.50;63.60
30174;DHT22;16985;50.814;8.530;2023-06-14T10:00:11;20.60;63.40
30174;DHT22;16985;50.814;8.530;2023-06-14T10:02:39;20.70;62.90
30174;DHT22;16985;50.814;8.530;2023-06-14T10:05:09;20.70;62.30
30174;DHT22;16985;50.814;8.530;2023-06-14T10:07:59;20.80;61.60
30174;DHT22;16985;50.814;8.530;2023-06-14T10:10:25;20.90;60.70
30174;DHT22;16985;50.814;8.530;2023-06-14T10:12:52;21.00;60.40
30174;DHT22;16985;50.814;8.530;2023-06-14T10:15:28;21.10;60.20
30174;DHT22;16985;50.814;8.530;2023-06-14T10:18:19;21.20;59.50
30174;DHT22;16985;50.814;8.530;2023-06-14T10:23:30;21.50;58.90
30174;DHT22;16985;50.814;8.530;2023-06-14T10:25:58;21.70;59.00
30174;DHT22;16985;50.814;8.530;2023-06-14T10:28:25;21.80;58.80
30174;DHT22;16985;50.814;8.530;2023-06-14T10:31:11;21.80;58.70
30174;DHT22;16985;50.814;8.530;2023-06-14T10:33:56;21.90;58.50
30174;DHT22;16985;50.814;8.530;2023-06-14T10:41:40;22.20;57.50
30174;DHT22;16985;50.814;8.530;2023-06-14T10:46:39;22.30;57.00
30174;DHT22;16985;50.814;8.530;2023-06-14T10:49:05;22.40;56.90
30174;DHT22;16985;50.814;8.530;2023-06-14T10:51:42;22.50;56.80
30174;DHT22;16985;50.814;8.530;2023-06-14T10:54:14;22.60;56.50
30174;DHT22;16985;50.814;8.530;2023-06-14T10:56:52;22.80;57.00
30174;DHT22;16985;50.814;8.530;2023-06-14T10:59:19;22.90;57.00
30174;DHT22;16985;50.814;8.530;2023-06-14T11:04:47;22.80;56.10
30174;DHT22;16985;50.814;8.530;2023-06-14T11:10:40;22.80;56.00
30174;DHT22;16985;50.814;8.530;2023-06-14T11:13:08;22.80;55.80
30174;DHT22;16985;50.814;8.530;2023-06-14T11:15:45;22.80;55.80
30174;DHT22;16985;50.814;8.530;2023-06-14T11:18:13;22.80;56.10
30174;DHT22;16985;50.814;8.530;2023-06-14T11:20:40;22.90;56.20
30174;DHT22;16985;50.814;8.530;2023-06-14T11:23:06;22.90;56.10
30174;DHT22;16985;50.814;8.530;2023-06-14T11:25:32;22.90;56.50
30174;DHT22;16985;50.814;8.530;2023-06-14T11:27:58;22.90;56.40
30174;DHT22;16985;50.814;8.530;2023-06-14T11:30:30;23.00;56.40
30174;DHT22;16985;50.814;8.530;2023-06-14T11:32:56;23.10;56.60
30174;DHT22;16985;50.814;8.530;2023-06-14T11:35:23;23.20;56.60
30174;DHT22;16985;50.814;8.530;2023-06-14T11:37:55;23.10;55.90
30174;DHT22;16985;50.814;8.530;2023-06-14T11:40:26;23.10;55.90
30174;DHT22;16985;50.814;8.530;2023-06-14T11:43:00;23.00;56.00
30174;DHT22;16985;50.814;8.530;2023-06-14T11:45:27;22.90;55.80
30174;DHT22;16985;50.814;8.530;2023-06-14T11:48:02;22.80;55.50
30174;DHT22;16985;50.814;8.530;2023-06-14T11:50:28;22.80;55.70
30174;DHT22;16985;50.814;8.530;2023-06-14T11:52:58;22.80;55.90
30174;DHT22;16985;50.814;8.530;2023-06-14T11:55:29;22.80;56.00
30174;DHT22;16985;50.814;8.530;2023-06-14T11:57:55;22.80;55.90
30174;DHT22;16985;50.814;8.530;2023-06-14T12:00:25;22.80;55.90
30174;DHT22;16985;50.814;8.530;2023-06-14T12:02:55;22.90;55.40
30174;DHT22;16985;50.814;8.530;2023-06-14T12:05:22;22.90;55.60
30174;DHT22;16985;50.814;8.530;2023-06-14T12:07:49;22.90;55.40
30174;DHT22;16985;50.814;8.530;2023-06-14T12:10:16;22.90;55.80
30174;DHT22;16985;50.814;8.530;2023-06-14T12:12:42;22.80;55.40
30174;DHT22;16985;50.814;8.530;2023-06-14T12:15:09;22.80;55.30
30174;DHT22;16985;50.814;8.530;2023-06-14T12:17:37;22.70;55.50
30174;DHT22;16985;50.814;8.530;2023-06-14T12:20:12;22.60;55.70
30174;DHT22;16985;50.814;8.530;2023-06-14T12:22:54;22.80;55.90
30174;DHT22;16985;50.814;8.530;2023-06-14T12:28:03;23.10;54.30
30174;DHT22;16985;50.814;8.530;2023-06-14T12:30:36;23.30;54.40
30174;DHT22;16985;50.814;8.530;2023-06-14T12:33:03;23.30;54.40
30174;DHT22;16985;50.814;8.530;2023-06-14T12:35:29;23.30;54.50
30174;DHT22;16985;50.814;8.530;2023-06-14T12:37:55;23.20;54.50
30174;DHT22;16985;50.814;8.530;2023-06-14T12:40:22;23.10;54.90
30174;DHT22;16985;50.814;8.530;2023-06-14T12:42:48;23.10;55.30
30174;DHT22;16985;50.814;8.530;2023-06-14T12:45:14;23.00;55.00
30174;DHT22;16985;50.814;8.530;2023-06-14T12:47:56;22.90;54.80
30174;DHT22;16985;50.814;8.530;2023-06-14T12:50:22;22.80;54.60
30174;DHT22;16985;50.814;8.530;2023-06-14T12:52:47;22.80;53.70
30174;DHT22;16985;50.814;8.530;2023-06-14T12:55:13;23.00;54.00
30174;DHT22;16985;50.814;8.530;2023-06-14T12:57:39;23.20;53.80
30174;DHT22;16985;50.814;8.530;2023-06-14T13:00:06;23.40;53.70
30174;DHT22;16985;50.814;8.530;2023-06-14T13:02:33;23.50;53.70
30174;DHT22;16985;50.814;8.530;2023-06-14T13:04:59;23.60;54.00
30174;DHT22;16985;50.814;8.530;2023-06-14T13:07:25;23.60;53.60
30174;DHT22;16985;50.814;8.530;2023-06-14T13:09:51;23.60;53.40
30174;DHT22;16985;50.814;8.530;2023-06-14T13:12:17;23.60;54.00
30174;DHT22;16985;50.814;8.530;2023-06-14T13:14:43;23.60;53.60
30174;DHT22;16985;50.814;8.530;2023-06-14T13:17:09;23.60;53.90
30174;DHT22;16985;50.814;8.530;2023-06-14T13:19:40;23.80;53.80
30174;DHT22;16985;50.814;8.530;2023-06-14T13:22:07;23.80;53.30
30174;DHT22;16985;50.814;8.530;2023-06-14T13:24:34;23.90;53.00
30174;DHT22;16985;50.814;8.530;2023-06-14T13:27:00;24.00;53.00
30174;DHT22;16985;50.814;8.530;2023-06-14T13:29:26;24.10;53.10
30174;DHT22;16985;50.814;8.530;2023-06-14T13:31:53;24.10;52.60
30174;DHT22;16985;50.814;8.530;2023-06-14T13:34:19;24.20;52.10
30174;DHT22;16985;50.814;8.530;2023-06-14T13:36:45;24.20;52.00
30174;DHT22;16985;50.814;8.530;2023-06-14T13:39:11;24.30;52.00
30174;DHT22;16985;50.814;8.530;2023-06-14T13:41:37;24.50;51.90
30174;DHT22;16985;50.814;8.530;2023-06-14T13:44:03;24.70;51.20
30174;DHT22;16985;50.814;8.530;2023-06-14T13:46:29;24.90;50.80
30174;DHT22;16985;50.814;8.530;2023-06-14T13:48:56;25.10;50.30
30174;DHT22;16985;50.814;8.530;2023-06-14T13:51:23;25.20;49.60
30174;DHT22;16985;50.814;8.530;2023-06-14T13:53:58;25.20;48.90
30174;DHT22;16985;50.814;8.530;2023-06-14T13:56:23;25.20;49.60
30174;DHT22;16985;50.814;8.530;2023-06-14T13:58:58;25.30;49.20
30174;DHT22;16985;50.814;8.530;2023-06-14T14:01:24;25.40;48.80
30174;DHT22;16985;50.814;8.530;2023-06-14T14:03:51;25.50;48.80
30174;DHT22;16985;50.814;8.530;2023-06-14T14:06:16;25.50;49.50
30174;DHT22;16985;50.814;8.530;2023-06-14T14:08:42;25.50;49.20
30174;DHT22;16985;50.814;8.530;2023-06-14T14:11:10;25.50;49.40
30174;DHT22;16985;50.814;8.530;2023-06-14T14:13:35;25.40;49.50
30174;DHT22;16985;50.814;8.530;2023-06-14T14:16:02;25.30;50.10
30174;DHT22;16985;50.814;8.530;2023-06-14T14:18:28;25.10;49.10
30174;DHT22;16985;50.814;8.530;2023-06-14T14:20:55;24.90;49.20
30174;DHT22;16985;50.814;8.530;2023-06-14T14:23:36;24.70;49.70
30174;DHT22;16985;50.814;8.530;2023-06-14T14:26:02;24.60;50.00
30174;DHT22;16985;50.814;8.530;2023-06-14T14:28:30;24.60;50.10
30174;DHT22;16985;50.814;8.530;2023-06-14T14:30:58;24.70;50.10
30174;DHT22;16985;50.814;8.530;2023-06-14T14:33:23;24.80;49.90
30174;DHT22;16985;50.814;8.530;2023-06-14T14:35:49;24.80;50.10
30174;DHT22;16985;50.814;8.530;2023-06-14T14:38:15;24.70;50.10
30174;DHT22;16985;50.814;8.530;2023-06-14T14:40:56;24.60;49.90
30174;DHT22;16985;50.814;8.530;2023-06-14T14:43:22;24.40;49.90
30174;DHT22;16985;50.814;8.530;2023-06-14T14:45:48;24.40;50.30
30174;DHT22;16985;50.814;8.530;2023-06-14T14:48:13;24.40;50.20
30174;DHT22;16985;50.814;8.530;2023-06-14T14:50:39;24.40;50.40
30174;DHT22;16985;50.814;8.530;2023-06-14T14:53:06;24.40;50.50
30174;DHT22;16985;50.814;8.530;2023-06-14T14:55:32;24.40;50.00
30174;DHT22;16985;50.814;8.530;2023-06-14T14:58:01;24.40;49.50
30174;DHT22;16985;50.814;8.530;2023-06-14T15:00:28;24.40;49.80
30174;DHT22;16985;50.814;8.530;2023-06-14T15:02:53;24.50;49.80
30174;DHT22;16985;50.814;8.530;2023-06-14T15:05:34;24.60;49.70
30174;DHT22;16985;50.814;8.530;2023-06-14T15:08:00;24.70;49.10
30174;DHT22;16985;50.814;8.530;2023-06-14T15:10:26;24.80;49.10
30174;DHT22;16985;50.814;8.530;2023-06-14T15:12:52;24.80;49.00
30174;DHT22;16985;50.814;8.530;2023-06-14T15:15:32;24.80;48.90
30174;DHT22;16985;50.814;8.530;2023-06-14T15:17:59;24.80;49.20
30174;DHT22;16985;50.814;8.530;2023-06-14T15:20:25;24.80;49.00
30174;DHT22;16985;50.814;8.530;2023-06-14T15:22:51;24.70;49.30
30174;DHT22;16985;50.814;8.530;2023-06-14T15:25:18;24.60;49.30
30174;DHT22;16985;50.814;8.530;2023-06-14T15:27:45;24.50;49.50
30174;DHT22;16985;50.814;8.530;2023-06-14T15:30:11;24.50;49.70
30174;DHT22;16985;50.814;8.530;2023-06-14T15:32:37;24.50;49.70
30174;DHT22;16985;50.814;8.530;2023-06-14T15:35:03;24.50;49.20
30174;DHT22;16985;50.814;8.530;2023-06-14T15:37:29;24.60;48.70
30174;DHT22;16985;50.814;8.530;2023-06-14T15:39:55;24.50;48.30
30174;DHT22;16985;50.814;8.530;2023-06-14T15:42:21;24.50;48.00
30174;DHT22;16985;50.814;8.530;2023-06-14T15:44:47;24.40;48.30
30174;DHT22;16985;50.814;8.530;2023-06-14T15:47:13;24.40;48.70
30174;DHT22;16985;50.814;8.530;2023-06-14T15:49:39;24.30;49.30
30174;DHT22;16985;50.814;8.530;2023-06-14T15:52:05;24.30;49.30
30174;DHT22;16985;50.814;8.530;2023-06-14T15:54:32;24.30;49.30
30174;DHT22;16985;50.814;8.530;2023-06-14T15:57:07;24.20;49.50